Time;durP1;ratioP1;P1;durP2;ratioP2;P2;SDS_P1;SDS_P2;PMS_P1;PMS_P2;Temp;Humidity;BMP_temperature;BMP_pressure;BME280_temperature;BME280_humidity;BME280_pressure;Samples;Min_cycle;Max_cycle;Signal;HPM_P1;HPM_P2
2022/02/23 05:42:46;;;;;;;9.25;5.40;;;;;;;1.09;89.14;100114.27;1738479;81;21112;-38
2022/02/23 05:45:13;;;;;;;7.85;5.65;;;;;;;1.15;88.56;100105.88;1743068;81;21495;-37
2022/02/23 05:47:40;;;;;;;10.50;5.83;;;;;;;1.18;88.27;100113.73;1749001;81;21172;-38
2022/02/23 05:50:07;;;;;;;8.33;5.62;;;;;;;1.19;88.29;100110.32;1711975;82;21588;-38
2022/02/23 05:52:35;;;;;;;9.18;6.08;;;;;;;1.22;88.19;100114.30;1729102;80;21034;-44
2022/02/23 05:55:04;;;;;;;12.10;5.95;;;;;;;1.27;88.38;100120.47;1732361;81;21079;-44
2022/02/23 05:57:33;;;;;;;9.55;6.55;;;;;;;1.32;88.36;100126.25;1667537;85;21513;-37
2022/02/23 06:00:00;;;;;;;16.93;6.65;;;;;;;1.42;88.33;100127.86;1737404;81;21085;-37
2022/02/23 06:02:26;;;;;;;12.40;6.90;;;;;;;1.53;88.06;100133.84;1735400;81;21060;-36
2022/02/23 06:04:54;;;;;;;9.58;6.97;;;;;;;1.61;88.14;100127.64;1741317;80;21627;-37
2022/02/23 06:07:23;;;;;;;13.10;7.00;;;;;;;1.74;88.25;100129.83;1714253;82;21450;-37
2022/02/23 06:09:52;;;;;;;8.75;6.28;;;;;;;1.88;87.99;100128.09;1731116;81;21001;-44
2022/02/23 06:12:20;;;;;;;7.08;5.45;;;;;;;1.99;87.45;100122.86;1738344;80;21303;-40
2022/02/23 06:14:50;;;;;;;8.28;5.12;;;;;;;2.08;86.71;100123.13;1705832;81;21088;-37
2022/02/23 06:17:19;;;;;;;8.40;6.22;;;;;;;2.10;86.35;100126.66;1718089;82;21456;-44
2022/02/23 06:19:46;;;;;;;9.75;6.22;;;;;;;2.13;86.12;100124.16;1715488;81;21046;-45
2022/02/23 06:22:14;;;;;;;9.98;5.42;;;;;;;2.15;86.06;100134.55;1721010;80;20989;-38
2022/02/23 06:29:23;;;;;;;11.33;6.03;;;;;;;2.25;86.13;100132.27;1736510;80;20977;-37
2022/02/23 06:36:24;;;;;;;9.80;6.00;;;;;;;2.53;85.79;100136.98;1740323;80;21523;-46
2022/02/23 06:46:17;;;;;;;9.23;6.30;;;;;;;2.94;84.84;100135.59;1736838;80;20971;-43
2022/02/23 06:48:56;;;;;;;11.10;7.10;;;;;;;3.08;84.38;100143.33;1739243;80;21908;-36
2022/02/23 06:51:22;;;;;;;11.53;6.92;;;;;;;3.17;84.19;100142.27;1739463;80;21415;-36
2022/02/23 06:53:49;;;;;;;11.00;7.58;;;;;;;3.24;83.59;100139.43;1739068;80;20997;-36
2022/02/23 06:56:16;;;;;;;19.10;7.28;;;;;;;3.31;83.29;100145.25;1743630;80;20948;-36
2022/02/23 06:58:49;;;;;;;11.03;6.78;;;;;;;3.41;83.16;100146.34;1718586;81;21550;-36
2022/02/23 07:01:19;;;;;;;11.15;7.05;;;;;;;3.45;82.57;100143.02;1739587;80;21447;-39
2022/02/23 07:03:46;;;;;;;10.90;7.05;;;;;;;3.48;82.62;100140.52;1739602;81;21615;-37
2022/02/23 07:06:14;;;;;;;12.70;7.12;;;;;;;3.52;82.49;100139.75;1738869;80;21024;-44
2022/02/23 07:08:46;;;;;;;9.63;6.40;;;;;;;3.58;82.22;100139.90;1739583;80;21562;-43
2022/02/23 07:11:13;;;;;;;8.40;6.28;;;;;;;3.67;82.14;100143.16;1738366;80;21013;-43
2022/02/23 07:13:41;;;;;;;9.83;6.65;;;;;;;3.77;81.85;100141.66;1727098;82;21849;-43
2022/02/23 07:16:08;;;;;;;9.83;6.30;;;;;;;3.86;81.22;100141.89;1715439;82;20942;-44
2022/02/23 07:18:37;;;;;;;8.25;6.12;;;;;;;3.92;80.82;100145.92;1717958;81;21135;-36
2022/02/23 07:21:12;;;;;;;9.35;5.55;;;;;;;3.98;80.85;100140.47;1720891;80;21457;-43
2022/02/23 07:23:57;;;;;;;10.53;6.58;;;;;;;4.04;80.72;100145.34;1734994;80;21579;-44
2022/02/23 07:27:32;;;;;;;9.00;6.25;;;;;;;4.09;80.56;100144.61;1734555;80;21359;-45
2022/02/23 07:31:48;;;;;;;11.70;6.45;;;;;;;4.14;79.87;100144.30;1738686;80;21710;-36
2022/02/23 07:35:27;;;;;;;9.55;6.53;;;;;;;4.16;80.08;100150.38;1737104;80;21020;-36
2022/02/23 07:39:25;;;;;;;9.18;6.17;;;;;;;4.19;80.30;100150.89;1743589;80;21051;-37
2022/02/23 07:42:28;;;;;;;11.08;7.25;;;;;;;4.30;80.89;100157.20;1741324;80;21115;-44
2022/02/23 07:45:07;;;;;;;9.00;6.45;;;;;;;4.41;80.80;100160.04;1740017;80;21592;-38
2022/02/23 07:48:06;;;;;;;10.18;6.95;;;;;;;4.47;80.29;100157.16;1739341;81;21087;-37
2022/02/23 07:50:44;;;;;;;8.53;6.30;;;;;;;4.51;80.27;100156.78;1752013;80;21033;-44
2022/02/23 07:53:11;;;;;;;;;;;;;;;4.59;80.51;100164.33;1750818;81;21013;-44
2022/02/23 07:55:41;;;;;;;8.03;6.15;;;;;;;4.61;78.97;100166.95;1738697;81;20550;-44
2022/02/23 07:58:07;;;;;;;15.00;6.97;;;;;;;4.58;78.60;100165.17;1737169;80;21334;-44
2022/02/23 08:00:35;;;;;;;9.65;6.60;;;;;;;4.57;78.36;100157.34;1740912;80;21566;-44
2022/02/23 08:03:04;;;;;;;13.18;7.53;;;;;;;4.58;79.00;100158.70;1738816;80;21001;-37
2022/02/23 08:05:31;;;;;;;10.70;7.15;;;;;;;4.61;78.10;100155.28;1744214;81;20961;-36
2022/02/23 08:07:58;;;;;;;10.58;7.05;;;;;;;4.62;77.81;100155.73;1739310;80;20999;-43
2022/02/23 08:10:26;;;;;;;9.00;6.97;;;;;;;4.61;77.89;100147.09;1734222;81;21135;-38
2022/02/23 08:12:58;;;;;;;11.18;7.42;;;;;;;4.62;78.30;100154.02;1710870;82;21069;-44
2022/02/23 08:21:04;;;;;;;11.83;8.23;;;;;;;4.78;78.13;100145.73;1717182;81;21531;-43
2022/02/23 08:23:32;;;;;;;10.58;7.67;;;;;;;4.86;78.06;100151.48;1720595;82;21021;-44
2022/02/23 08:25:59;;;;;;;11.80;8.25;;;;;;;4.94;78.36;100154.70;1720799;83;20946;-43
2022/02/23 08:28:26;;;;;;;11.30;8.15;;;;;;;5.06;78.38;100147.59;1714575;82;21518;-43
2022/02/23 08:30:53;;;;;;;11.78;7.08;;;;;;;5.16;77.39;100150.83;1716524;82;20981;-44
2022/02/23 08:33:23;;;;;;;13.22;8.35;;;;;;;5.22;76.74;100153.53;1724718;81;21368;-42
2022/02/23 08:35:53;;;;;;;11.70;7.92;;;;;;;5.27;77.03;100152.30;1701155;82;21041;-42
2022/02/23 08:38:24;;;;;;;11.38;7.75;;;;;;;5.34;76.22;100151.59;1694740;82;21084;-36
2022/02/23 08:41:00;;;;;;;11.57;7.90;;;;;;;5.38;75.74;100153.81;1691403;83;21395;-43
2022/02/23 08:43:29;;;;;;;10.93;7.65;;;;;;;5.42;76.00;100158.22;1661223;81;21675;-37
2022/02/23 08:45:57;;;;;;;9.85;7.17;;;;;;;5.47;75.36;100160.05;1705088;81;21603;-37
2022/02/23 08:48:27;;;;;;;11.15;7.47;;;;;;;5.53;75.44;100163.19;1741971;81;22007;-36
2022/02/23 08:50:58;;;;;;;12.05;8.55;;;;;;;5.59;75.09;100168.06;1683523;81;21045;-36
2022/02/23 08:53:29;;;;;;;14.85;9.70;;;;;;;5.61;74.87;100174.14;1674365;81;21014;-43
2022/02/23 08:55:57;;;;;;;12.20;8.15;;;;;;;5.67;74.72;100170.78;1745859;81;21017;-37
2022/02/23 08:58:25;;;;;;;12.25;8.53;;;;;;;5.74;74.97;100178.25;1740540;81;21086;-37
2022/02/23 09:00:55;;;;;;;9.95;7.50;;;;;;;5.77;74.30;100172.70;1746763;80;21094;-44
2022/02/23 09:03:24;;;;;;;10.82;8.03;;;;;;;5.81;74.53;100181.00;1744166;81;21061;-45
2022/02/23 09:05:55;;;;;;;11.28;7.47;;;;;;;5.87;74.63;100172.44;1740735;81;21403;-38
2022/02/23 09:08:26;;;;;;;10.95;8.00;;;;;;;5.96;74.34;100171.73;1699104;81;21490;-38
2022/02/23 09:10:56;;;;;;;11.55;7.75;;;;;;;6.04;72.63;100171.03;1669885;83;21486;-45
2022/02/23 09:13:27;;;;;;;13.30;8.75;;;;;;;6.06;72.31;100172.34;1709478;82;21547;-45
2022/02/23 09:16:20;;;;;;;12.10;7.62;;;;;;;6.05;72.56;100174.08;1662040;81;20946;-38
2022/02/23 09:19:59;;;;;;;10.40;6.85;;;;;;;6.11;72.37;100179.37;1687308;83;21035;-38
2022/02/23 09:23:02;;;;;;;12.80;7.90;;;;;;;6.14;72.17;100183.72;1729862;81;20982;-39
2022/02/23 09:26:18;;;;;;;11.05;7.80;;;;;;;6.25;72.60;100173.50;1741325;80;20934;-38
2022/02/23 09:29:44;;;;;;;10.90;7.67;;;;;;;6.39;71.84;100178.08;1740037;80;21003;-37
2022/02/23 09:32:28;;;;;;;11.68;8.43;;;;;;;6.49;70.70;100179.49;1739693;81;21513;-38
2022/02/23 09:38:58;;;;;;;10.60;7.20;;;;;;;6.66;71.05;100184.51;1742959;81;21041;-38
2022/02/23 09:41:25;;;;;;;10.28;7.03;;;;;;;6.79;69.34;100179.95;1751548;80;21014;-37
2022/02/23 09:44:10;;;;;;;9.83;7.17;;;;;;;6.85;68.01;100184.36;1739601;80;21668;-44
2022/02/23 09:46:37;;;;;;;11.88;7.35;;;;;;;6.87;67.69;100177.00;1740934;81;21033;-44
2022/02/23 09:49:04;;;;;;;13.08;7.90;;;;;;;7.05;67.75;100175.06;1742228;80;21437;-44
2022/02/23 09:51:57;;;;;;;13.83;8.33;;;;;;;7.20;68.63;100176.98;1735896;81;21007;-44
2022/02/23 09:55:27;;;;;;;11.55;8.30;;;;;;;7.29;68.32;100177.08;1717592;82;21116;-45
2022/02/23 09:58:36;;;;;;;10.32;8.05;;;;;;;7.41;67.39;100175.91;1715455;82;21004;-45
2022/02/23 10:01:33;;;;;;;11.70;7.90;;;;;;;7.53;67.31;100176.89;1740305;80;20969;-45
2022/02/23 10:08:57;;;;;;;13.28;7.25;;;;;;;7.56;65.81;100178.25;1716816;82;21391;-46
2022/02/23 10:12:29;;;;;;;9.13;7.55;;;;;;;7.41;65.52;100172.44;1698502;83;21233;-37
2022/02/23 10:16:01;;;;;;;12.60;8.55;;;;;;;7.33;65.89;100172.80;1735902;81;21165;-45
2022/02/23 10:19:41;;;;;;;12.23;8.20;;;;;;;7.35;65.53;100169.34;1710699;82;21022;-37
2022/02/23 10:27:01;;;;;;;13.10;8.60;;;;;;;7.59;66.18;100160.03;1730111;80;21060;-38
2022/02/23 10:34:36;;;;;;;;;;;;;;;8.06;63.58;100148.76;1739575;80;21483;-36
2022/02/23 10:41:03;;;;;;;10.55;6.37;;;;;;;9.62;58.71;100139.05;1742838;80;21089;-44
2022/02/23 10:43:36;;;;;;;6.67;5.42;;;;;;;9.80;57.73;100146.94;1725779;81;21041;-45
2022/02/23 10:46:09;;;;;;;11.08;6.37;;;;;;;10.05;57.55;100141.27;1740235;81;20963;-44
2022/02/23 10:48:45;;;;;;;6.22;5.55;;;;;;;10.34;55.49;100134.73;1693204;81;21029;-44
2022/02/23 10:51:25;;;;;;;11.75;6.03;;;;;;;10.60;54.67;100139.90;1695523;83;20988;-45
2022/02/23 10:53:58;;;;;;;6.97;4.20;;;;;;;10.74;53.49;100134.64;1716601;82;21312;-44
2022/02/23 10:56:33;;;;;;;5.78;4.12;;;;;;;10.45;50.46;100139.95;1716654;83;21708;-45
2022/02/23 10:59:18;;;;;;;6.67;5.05;;;;;;;10.00;52.20;100135.16;1723928;81;21089;-45
2022/02/23 11:01:49;;;;;;;5.40;4.60;;;;;;;9.78;52.74;100143.86;1725395;81;21449;-45
2022/02/23 11:04:20;;;;;;;5.00;3.92;;;;;;;9.53;53.49;100139.05;1715992;81;21048;-37
2022/02/23 11:07:07;;;;;;;7.70;4.62;;;;;;;9.66;53.75;100143.86;1729134;81;20954;-44
2022/02/23 11:13:15;;;;;;;5.75;4.70;;;;;;;9.97;52.11;100132.57;1703099;81;20981;-44
2022/02/23 11:16:19;;;;;;;6.08;4.10;;;;;;;9.88;53.55;100145.63;1701358;82;21443;-44
2022/02/23 11:19:41;;;;;;;6.62;3.77;;;;;;;10.26;52.03;100136.50;1705881;81;21009;-45
2022/02/23 11:22:25;;;;;;;6.33;4.40;;;;;;;10.55;50.96;100125.98;1710324;83;20955;-44
2022/02/23 11:24:59;;;;;;;7.03;4.42;;;;;;;10.50;50.78;100131.66;1708260;83;21037;-44
2022/02/23 11:27:37;;;;;;;6.83;3.70;;;;;;;10.23;51.21;100127.75;1704821;82;21861;-44
2022/02/23 11:30:32;;;;;;;7.70;4.67;;;;;;;10.12;50.51;100131.23;1717448;81;21641;-45
2022/02/23 11:33:09;;;;;;;5.72;3.40;;;;;;;10.13;50.55;100130.80;1700038;82;22043;-45
2022/02/23 11:35:49;;;;;;;8.13;4.08;;;;;;;10.13;50.59;100134.72;1710545;83;21956;-45
2022/02/23 11:38:20;;;;;;;7.72;4.25;;;;;;;9.95;50.54;100136.91;1713818;82;20992;-37
2022/02/23 11:40:49;;;;;;;5.47;3.67;;;;;;;9.51;51.58;100132.97;1699568;83;21323;-38
2022/02/23 11:43:41;;;;;;;6.72;4.72;;;;;;;9.14;52.58;100138.52;1718781;83;21423;-38
2022/02/23 11:46:32;;;;;;;5.35;4.00;;;;;;;8.93;53.54;100136.68;1721736;82;21587;-38
2022/02/23 11:48:59;;;;;;;6.22;4.10;;;;;;;8.76;54.36;100127.07;1734652;81;21700;-38
2022/02/23 11:51:31;;;;;;;7.05;4.22;;;;;;;8.60;53.75;100126.98;1742319;80;21783;-38
2022/02/23 11:53:59;;;;;;;6.75;3.83;;;;;;;8.52;53.91;100126.92;1738958;80;21107;-44
2022/02/23 11:56:28;;;;;;;7.05;4.37;;;;;;;8.59;54.18;100122.20;1743636;80;21170;-38
2022/02/23 11:59:07;;;;;;;7.05;4.40;;;;;;;8.84;54.17;100126.22;1727295;80;21033;-39
2022/02/23 12:01:52;;;;;;;6.15;3.92;;;;;;;9.27;53.89;100118.96;1724731;80;21365;-38
2022/02/23 12:04:18;;;;;;;4.80;3.55;;;;;;;9.54;52.18;100122.52;1739613;80;21543;-38
2022/02/23 12:07:19;;;;;;;12.78;7.17;;;;;;;9.37;52.05;100117.25;1739632;80;21011;-45
2022/02/23 12:10:14;;;;;;;6.30;4.05;;;;;;;9.14;53.22;100120.23;1737067;80;21454;-44
2022/02/23 12:12:47;;;;;;;6.15;4.37;;;;;;;8.84;53.42;100124.92;1737951;80;21346;-44
2022/02/23 12:15:51;;;;;;;8.18;5.17;;;;;;;8.64;53.94;100123.50;1735579;80;21051;-44
2022/02/23 12:18:29;;;;;;;10.03;5.50;;;;;;;8.57;54.14;100122.60;1738146;80;21564;-45
2022/02/23 12:22:09;;;;;;;10.78;8.35;;;;;;;8.68;54.72;100126.58;1729398;80;21902;-37
2022/02/23 12:25:59;;;;;;;7.45;5.60;;;;;;;8.42;54.79;100128.63;1737680;79;21593;-45
2022/02/23 12:37:14;;;;;;;8.15;4.80;;;;;;;8.22;56.24;100133.66;1739470;81;21484;-45
2022/02/23 12:41:00;;;;;;;11.30;5.30;;;;;;;8.58;54.40;100126.08;1740739;80;21614;-45
2022/02/23 12:48:16;;;;;;;6.62;4.78;;;;;;;8.63;54.29;100139.59;1734243;81;21409;-46
2022/02/23 12:51:49;;;;;;;5.58;4.20;;;;;;;8.38;54.03;100133.37;1723023;81;21678;-44
2022/02/23 12:54:55;;;;;;;8.83;4.53;;;;;;;8.52;55.38;100129.13;1714506;81;22030;-45
2022/02/23 12:57:53;;;;;;;11.05;6.33;;;;;;;8.97;52.42;100131.48;1696511;81;21517;-37
2022/02/23 13:04:59;;;;;;;5.67;3.75;;;;;;;9.17;52.85;100132.02;1716467;81;21100;-44
2022/02/23 13:07:57;;;;;;;;;;;;;;;9.45;51.81;100127.70;1714414;81;20988;-37
2022/02/23 13:14:26;;;;;;;9.13;5.00;;;;;;;9.74;50.88;100128.64;1714135;81;21070;-36
2022/02/23 13:17:17;;;;;;;7.30;4.72;;;;;;;9.52;50.75;100138.63;1717929;81;20992;-37
2022/02/23 13:19:55;;;;;;;5.90;3.95;;;;;;;9.29;51.25;100137.27;1716453;81;21093;-37
2022/02/23 13:37:15;;;;;;;7.15;5.12;;;;;;;9.07;51.40;100128.48;1706148;81;21095;-43
2022/02/23 13:40:03;;;;;;;6.50;3.77;;;;;;;9.24;51.10;100133.33;1688603;81;21009;-47
2022/02/23 13:42:34;;;;;;;6.22;4.15;;;;;;;9.52;50.61;100132.09;1743972;80;21022;-44
2022/02/23 13:45:24;;;;;;;6.15;4.15;;;;;;;9.66;49.71;100129.48;1741988;80;21032;-44
2022/02/23 13:47:53;;;;;;;5.40;3.70;;;;;;;9.88;49.76;100122.10;1745672;81;20982;-44
2022/02/23 13:50:24;;;;;;;4.08;3.30;;;;;;;10.23;48.42;100125.13;1742688;81;21442;-43
2022/02/23 13:53:04;;;;;;;5.03;3.55;;;;;;;10.19;47.28;100128.61;1745775;81;21513;-45
2022/02/23 13:55:32;;;;;;;8.03;3.90;;;;;;;10.05;47.46;100130.81;1747350;80;21057;-37
2022/02/23 13:58:05;;;;;;;6.03;3.83;;;;;;;9.76;47.35;100129.94;1739207;81;20939;-37
